Time;durP1;ratioP1;P1;durP2;ratioP2;P2;SDS_P1;SDS_P2;PMS_P1;PMS_P2;Temp;Humidity;BMP_temperature;BMP_pressure;BME280_temperature;BME280_humidity;BME280_pressure;Samples;Min_cycle;Max_cycle;Signal;HPM_P1;HPM_P2
2022/01/06 00:00:43;;;;;;;7.32;2.00;;;5.50;99.90;;;;;;5021295;28;20076;-84
2022/01/06 00:03:09;;;;;;;4.18;1.48;;;5.50;99.90;;;;;;5020199;28;20461;-83
2022/01/06 00:05:34;;;;;;;4.05;1.35;;;5.60;99.90;;;;;;5021106;28;20041;-83
2022/01/06 00:08:01;;;;;;;1.95;1.50;;;5.50;99.90;;;;;;5020916;28;20041;-84
2022/01/06 00:10:29;;;;;;;1.58;1.38;;;5.50;99.90;;;;;;5019363;28;20506;-82
2022/01/06 00:25:34;;;;;;;4.60;1.85;;;5.50;99.90;;;;;;5019480;28;20531;-82
2022/01/06 00:27:59;;;;;;;7.70;1.40;;;5.50;99.90;;;;;;5001980;28;20479;-83
2022/01/06 00:30:25;;;;;;;4.32;1.58;;;5.50;99.90;;;;;;5018394;28;20098;-83
2022/01/06 00:32:51;;;;;;;0.57;0.57;;;5.50;99.90;;;;;;5021068;28;20057;-83
2022/01/06 00:35:17;;;;;;;10.85;2.53;;;5.50;99.90;;;;;;5020350;28;20120;-81
2022/01/06 00:37:42;;;;;;;0.38;0.38;;;5.50;99.90;;;;;;5020622;28;20149;-83
2022/01/06 00:40:08;;;;;;;1.75;1.13;;;5.50;99.90;;;;;;5020830;28;20566;-83
2022/01/06 00:42:34;;;;;;;5.35;2.05;;;5.50;99.90;;;;;;5018809;28;20072;-83
2022/01/06 00:45:00;;;;;;;3.75;1.85;;;5.50;99.90;;;;;;5019585;28;20053;-83
2022/01/06 00:47:25;;;;;;;1.52;1.40;;;5.50;99.90;;;;;;5020389;28;20037;-84
2022/01/06 00:49:51;;;;;;;2.45;1.08;;;5.50;99.90;;;;;;5020368;28;20038;-83
2022/01/06 00:52:16;;;;;;;5.30;1.88;;;5.40;99.90;;;;;;5019791;28;20053;-81
2022/01/06 00:54:42;;;;;;;0.63;0.63;;;5.40;99.90;;;;;;5003277;28;20133;-83
2022/01/06 00:57:07;;;;;;;5.40;1.70;;;5.40;99.90;;;;;;5017796;28;20053;-83
2022/01/06 00:59:33;;;;;;;16.13;1.25;;;5.40;99.90;;;;;;5020432;28;20041;-83
2022/01/06 01:01:59;;;;;;;13.95;1.15;;;5.40;99.90;;;;;;5020565;28;20053;-83
2022/01/06 01:04:24;;;;;;;2.40;1.73;;;5.40;99.90;;;;;;5017906;28;20068;-83
2022/01/06 01:06:50;;;;;;;13.43;1.55;;;5.40;99.90;;;;;;5019627;28;20057;-83
2022/01/06 01:09:15;;;;;;;7.97;2.20;;;5.40;99.90;;;;;;5019429;28;20128;-83
2022/01/06 01:11:41;;;;;;;6.65;1.50;;;5.40;99.90;;;;;;5023024;28;20056;-83
2022/01/06 01:14:17;;;;;;;3.08;0.90;;;5.40;99.90;;;;;;5023895;28;20049;-83
2022/01/06 01:16:52;;;;;;;3.70;1.15;;;5.40;99.90;;;;;;5023183;28;20124;-83
2022/01/06 01:19:18;;;;;;;0.57;0.52;;;5.40;99.90;;;;;;5022413;28;20049;-83
2022/01/06 01:21:44;;;;;;;2.55;1.42;;;5.40;99.90;;;;;;5022927;28;20408;-83
2022/01/06 01:24:10;;;;;;;0.50;0.50;;;5.40;99.90;;;;;;5022110;28;20049;-83
2022/01/06 01:26:36;;;;;;;2.90;1.30;;;5.40;99.90;;;;;;5021579;28;20068;-83
2022/01/06 01:29:02;;;;;;;7.03;0.85;;;5.40;99.90;;;;;;5023518;28;20041;-82
2022/01/06 01:31:32;;;;;;;1.52;0.70;;;5.40;99.90;;;;;;5022017;28;20120;-83
2022/01/06 01:34:02;;;;;;;9.73;1.80;;;5.40;99.90;;;;;;5021958;28;20128;-83
2022/01/06 01:36:27;;;;;;;6.45;1.90;;;5.40;99.90;;;;;;5022039;28;20151;-83
2022/01/06 01:38:53;;;;;;;9.32;1.17;;;5.40;99.90;;;;;;5021903;28;20790;-82
2022/01/06 01:41:19;;;;;;;4.95;1.58;;;5.40;99.90;;;;;;5022518;28;20038;-83
2022/01/06 01:43:47;;;;;;;3.13;1.35;;;5.40;99.90;;;;;;5024178;28;20484;-83
2022/01/06 01:46:16;;;;;;;18.55;1.90;;;5.40;99.90;;;;;;5022589;28;20041;-83
2022/01/06 01:48:48;;;;;;;9.80;1.15;;;5.30;99.90;;;;;;5023323;28;20503;-83
2022/01/06 01:51:14;;;;;;;1.00;1.00;;;5.30;99.90;;;;;;5022316;28;20041;-82
2022/01/06 01:53:40;;;;;;;0.73;0.65;;;5.30;99.90;;;;;;5021379;28;20056;-83
2022/01/06 01:56:10;;;;;;;4.72;1.55;;;5.30;99.90;;;;;;5021247;28;20044;-82
2022/01/06 01:58:37;;;;;;;6.82;2.10;;;5.30;99.90;;;;;;5023113;28;20705;-82
2022/01/06 02:01:04;;;;;;;7.95;2.63;;;5.30;99.90;;;;;;5021879;28;20073;-82
2022/01/06 02:03:29;;;;;;;7.10;1.50;;;5.30;99.90;;;;;;5021968;28;20041;-83
2022/01/06 02:05:55;;;;;;;3.50;1.67;;;5.30;99.90;;;;;;5022736;28;20041;-83
2022/01/06 02:08:21;;;;;;;8.10;1.40;;;5.30;99.90;;;;;;5022880;28;20052;-83
2022/01/06 02:10:47;;;;;;;4.78;1.42;;;5.30;99.90;;;;;;5023038;28;20111;-81
2022/01/06 02:13:13;;;;;;;5.32;2.15;;;5.30;99.90;;;;;;5021293;28;20057;-83
2022/01/06 02:15:39;;;;;;;0.95;0.88;;;5.30;99.90;;;;;;5022398;28;20049;-83
2022/01/06 02:18:04;;;;;;;5.03;2.10;;;5.30;99.90;;;;;;5022764;28;20463;-83
2022/01/06 02:20:30;;;;;;;9.00;1.33;;;5.20;99.90;;;;;;5022553;28;20037;-83
2022/01/06 02:22:55;;;;;;;1.13;1.02;;;5.30;99.90;;;;;;5022365;28;20395;-84
2022/01/06 02:25:32;;;;;;;5.72;1.65;;;5.30;99.90;;;;;;5022365;28;20099;-84
2022/01/06 02:28:03;;;;;;;2.25;1.10;;;5.20;99.90;;;;;;5020313;28;20049;-84
2022/01/06 02:30:32;;;;;;;4.10;1.13;;;5.20;99.90;;;;;;5020778;28;20064;-83
2022/01/06 02:33:00;;;;;;;1.55;1.05;;;5.20;99.90;;;;;;5022470;28;20038;-84
2022/01/06 02:35:25;;;;;;;12.82;2.20;;;5.20;99.90;;;;;;5020625;28;20079;-83
2022/01/06 02:37:51;;;;;;;8.15;1.35;;;5.20;99.90;;;;;;5021732;28;20033;-83
2022/01/06 02:40:19;;;;;;;1.92;1.75;;;5.20;99.90;;;;;;5022861;28;20045;-83
2022/01/06 02:42:48;;;;;;;1.55;1.45;;;5.20;99.90;;;;;;5021765;28;20095;-83
2022/01/06 02:45:14;;;;;;;5.45;1.52;;;5.20;99.90;;;;;;5021281;28;20041;-83
2022/01/06 02:47:41;;;;;;;3.22;0.98;;;5.10;99.90;;;;;;5021608;28;20037;-83
2022/01/06 02:50:08;;;;;;;22.98;1.70;;;5.10;99.90;;;;;;5022563;28;20045;-83
2022/01/06 02:52:34;;;;;;;4.82;1.13;;;5.10;99.90;;;;;;5020871;28;20053;-83
2022/01/06 02:55:00;;;;;;;3.05;1.30;;;5.10;99.90;;;;;;5022119;28;20369;-83
2022/01/06 02:57:25;;;;;;;23.95;1.95;;;5.10;99.90;;;;;;5020818;28;20041;-83
2022/01/06 02:59:51;;;;;;;18.08;1.42;;;5.10;99.90;;;;;;5021871;28;20037;-84
2022/01/06 03:02:16;;;;;;;1.92;1.17;;;5.00;99.90;;;;;;5020639;28;20041;-83
2022/01/06 03:04:42;;;;;;;13.77;1.52;;;5.00;99.90;;;;;;5022634;28;20037;-83
2022/01/06 03:07:08;;;;;;;6.47;2.00;;;5.00;99.90;;;;;;5020343;28;20056;-83
2022/01/06 03:09:42;;;;;;;1.38;0.57;;;5.00;99.90;;;;;;5020544;28;20107;-83
2022/01/06 03:12:24;;;;;;;0.60;0.60;;;5.00;99.90;;;;;;5019773;28;20108;-83
2022/01/06 03:14:49;;;;;;;0.50;0.50;;;5.00;99.90;;;;;;5003745;28;20046;-83
2022/01/06 03:17:15;;;;;;;3.45;0.52;;;5.00;99.90;;;;;;5022566;28;20092;-83
2022/01/06 03:19:41;;;;;;;0.70;0.63;;;5.00;99.90;;;;;;5019807;28;20496;-83
2022/01/06 03:22:06;;;;;;;1.90;0.82;;;5.00;99.90;;;;;;5020619;28;20113;-83
2022/01/06 03:24:32;;;;;;;3.78;1.60;;;5.00;99.90;;;;;;5020228;28;20537;-83
2022/01/06 03:26:57;;;;;;;0.80;0.80;;;4.90;99.90;;;;;;5019355;28;20045;-83
2022/01/06 03:29:23;;;;;;;3.22;1.73;;;4.90;99.90;;;;;;5020292;28;20128;-84
2022/01/06 03:31:48;;;;;;;5.47;2.05;;;4.90;99.90;;;;;;5021675;28;20045;-83
2022/01/06 03:34:14;;;;;;;7.68;1.10;;;4.90;99.90;;;;;;5021169;28;20141;-83
2022/01/06 03:36:40;;;;;;;4.25;1.13;;;4.90;99.90;;;;;;5019831;28;20136;-83
2022/01/06 03:39:05;;;;;;;0.85;0.80;;;4.90;99.90;;;;;;5019642;28;20049;-83
2022/01/06 03:41:32;;;;;;;9.18;1.45;;;4.90;99.90;;;;;;5019284;28;20045;-83
2022/01/06 03:43:58;;;;;;;3.63;0.85;;;4.80;99.90;;;;;;5020026;28;20152;-83
2022/01/06 03:46:24;;;;;;;8.82;1.75;;;4.80;99.90;;;;;;5003034;28;20517;-84
2022/01/06 03:48:49;;;;;;;4.90;1.83;;;4.80;99.90;;;;;;5020097;28;20731;-83
2022/01/06 03:51:15;;;;;;;5.53;1.40;;;4.80;99.90;;;;;;5021564;28;20083;-83
2022/01/06 03:53:41;;;;;;;13.85;1.77;;;4.80;99.90;;;;;;5020878;28;20037;-83
2022/01/06 03:56:06;;;;;;;1.73;1.13;;;4.80;99.90;;;;;;5020033;28;20430;-83
2022/01/06 03:58:32;;;;;;;11.30;1.38;;;4.80;99.90;;;;;;5019549;28;20045;-83
2022/01/06 04:00:57;;;;;;;4.47;1.00;;;4.80;99.90;;;;;;5020070;28;20044;-84
2022/01/06 04:03:23;;;;;;;2.17;1.42;;;4.80;99.90;;;;;;5019613;28;20087;-84
2022/01/06 04:05:48;;;;;;;2.13;1.58;;;4.80;99.90;;;;;;5020763;28;20072;-83
2022/01/06 04:08:14;;;;;;;2.55;1.27;;;4.80;99.90;;;;;;5019737;28;20052;-83
2022/01/06 04:10:39;;;;;;;3.55;1.80;;;4.80;99.90;;;;;;5018563;28;20042;-83
2022/01/06 04:13:05;;;;;;;3.83;1.17;;;4.80;99.90;;;;;;5020600;28;20060;-84
2022/01/06 04:15:31;;;;;;;14.68;2.53;;;4.80;99.90;;;;;;5020602;28;20045;-83
2022/01/06 04:17:56;;;;;;;7.50;2.42;;;4.80;99.90;;;;;;5021250;28;20091;-83
2022/01/06 04:20:22;;;;;;;1.80;1.17;;;4.70;99.90;;;;;;5019579;28;20046;-83
2022/01/06 04:22:48;;;;;;;2.25;0.68;;;4.70;99.90;;;;;;5020934;28;20566;-83
2022/01/06 04:25:13;;;;;;;1.20;1.10;;;4.70;99.90;;;;;;5020846;28;20081;-83
2022/01/06 04:27:39;;;;;;;0.98;0.88;;;4.70;99.90;;;;;;5019863;28;20045;-83
2022/01/06 04:30:07;;;;;;;5.88;2.40;;;4.70;99.90;;;;;;5019541;28;20107;-83
2022/01/06 04:32:34;;;;;;;3.63;1.27;;;4.60;99.90;;;;;;5019066;28;20049;-83
2022/01/06 04:34:59;;;;;;;19.20;2.03;;;4.60;99.90;;;;;;5019150;28;20050;-83
2022/01/06 04:37:26;;;;;;;0.60;0.60;;;4.60;99.90;;;;;;5020701;28;20040;-83
2022/01/06 04:39:52;;;;;;;7.22;1.65;;;4.50;99.90;;;;;;5020626;28;20072;-84
2022/01/06 04:42:17;;;;;;;0.95;0.75;;;4.50;99.90;;;;;;5018097;28;20049;-83
2022/01/06 04:44:43;;;;;;;1.05;0.93;;;4.40;99.90;;;;;;5020391;28;20137;-83
2022/01/06 04:47:09;;;;;;;2.30;1.20;;;4.30;99.90;;;;;;5025048;28;20519;-83
2022/01/06 04:49:34;;;;;;;8.57;1.15;;;4.30;99.90;;;;;;5023172;28;20056;-83
2022/01/06 04:52:01;;;;;;;1.23;0.22;;;4.20;99.90;;;;;;5024165;28;20049;-83
2022/01/06 04:54:26;;;;;;;3.30;0.95;;;4.20;99.90;;;;;;5022811;28;20176;-83
2022/01/06 04:56:52;;;;;;;9.90;1.70;;;4.10;99.90;;;;;;5022163;28;20136;-84
2022/01/06 04:59:17;;;;;;;8.35;1.67;;;4.00;99.90;;;;;;5024621;28;20041;-84
2022/01/06 05:01:43;;;;;;;0.93;0.93;;;4.00;99.90;;;;;;5024459;28;20038;-83
2022/01/06 05:04:09;;;;;;;0.28;0.28;;;3.90;99.90;;;;;;5022941;28;20128;-83
2022/01/06 05:06:35;;;;;;;3.42;1.27;;;3.90;99.90;;;;;;5022699;28;20124;-83
2022/01/06 05:09:01;;;;;;;0.47;0.43;;;3.90;99.90;;;;;;5022408;28;20045;-83
2022/01/06 05:11:26;;;;;;;2.73;1.57;;;3.80;99.90;;;;;;5022286;28;20056;-83
2022/01/06 05:13:52;;;;;;;2.47;1.58;;;3.80;99.90;;;;;;5023282;28;20049;-83
2022/01/06 05:16:18;;;;;;;2.00;0.83;;;3.70;99.90;;;;;;5024229;28;20051;-83
2022/01/06 05:18:43;;;;;;;0.57;0.57;;;3.70;99.90;;;;;;5024157;28;20042;-83
2022/01/06 05:21:09;;;;;;;2.10;0.97;;;3.60;99.90;;;;;;5023007;28;20054;-83
2022/01/06 05:23:35;;;;;;;4.03;0.97;;;3.60;99.90;;;;;;5005560;28;20047;-83
2022/01/06 05:26:00;;;;;;;0.60;0.60;;;3.60;99.90;;;;;;5021845;28;20376;-82
2022/01/06 05:28:26;;;;;;;4.33;1.57;;;3.50;99.90;;;;;;5023446;28;20045;-83
2022/01/06 05:30:52;;;;;;;10.23;1.50;;;3.50;99.90;;;;;;5022274;28;20049;-83
2022/01/06 05:33:18;;;;;;;2.03;1.20;;;3.50;99.90;;;;;;5023817;28;20041;-83
2022/01/06 05:35:44;;;;;;;3.30;1.27;;;3.40;99.90;;;;;;5022956;28;20111;-83
2022/01/06 05:38:09;;;;;;;0.93;0.93;;;3.40;99.90;;;;;;5022824;28;20030;-83
2022/01/06 05:40:35;;;;;;;1.00;1.00;;;3.40;99.90;;;;;;5021041;28;20042;-83
2022/01/06 05:43:00;;;;;;;5.43;1.40;;;3.40;99.90;;;;;;5005944;28;20504;-83
2022/01/06 05:45:26;;;;;;;12.43;2.07;;;3.30;99.90;;;;;;5022057;28;20396;-83
2022/01/06 05:47:52;;;;;;;0.93;0.90;;;3.30;99.90;;;;;;5022079;28;20053;-83
2022/01/06 05:50:18;;;;;;;4.60;0.53;;;3.30;99.90;;;;;;5023309;28;20057;-83
2022/01/06 05:52:44;;;;;;;3.00;0.73;;;3.30;99.90;;;;;;5022821;28;20049;-84
2022/01/06 05:55:10;;;;;;;4.93;1.13;;;3.30;99.90;;;;;;5022181;28;20049;-83
2022/01/06 05:57:36;;;;;;;5.97;2.00;;;3.30;99.90;;;;;;5021902;28;20057;-83
2022/01/06 06:00:03;;;;;;;4.43;1.77;;;3.20;99.90;;;;;;5022314;28;20049;-83
2022/01/06 06:02:29;;;;;;;1.47;1.33;;;3.20;99.90;;;;;;5021582;28;20485;-83
2022/01/06 06:04:55;;;;;;;3.27;0.93;;;3.20;99.90;;;;;;5022368;28;20045;-84
2022/01/06 06:07:20;;;;;;;3.53;0.93;;;3.20;99.90;;;;;;5022491;28;20103;-83
2022/01/06 06:09:47;;;;;;;3.20;0.87;;;3.20;99.90;;;;;;5023367;28;20041;-83
2022/01/06 06:12:12;;;;;;;4.87;1.63;;;3.20;99.90;;;;;;5015878;28;20119;-83
2022/01/06 06:14:38;;;;;;;2.87;1.63;;;3.20;99.90;;;;;;5021852;28;20045;-85
2022/01/06 06:17:03;;;;;;;9.77;1.60;;;3.10;99.90;;;;;;5022294;28;20056;-84
2022/01/06 06:19:29;;;;;;;3.30;1.73;;;3.10;99.90;;;;;;5022812;28;20174;-84
2022/01/06 06:21:55;;;;;;;7.77;1.67;;;3.20;99.90;;;;;;5023388;28;20760;-84
2022/01/06 06:24:22;;;;;;;10.40;2.07;;;3.10;99.90;;;;;;5022216;28;20514;-84
2022/01/06 06:26:48;;;;;;;5.53;1.70;;;3.10;99.90;;;;;;5020082;28;20048;-81
2022/01/06 06:29:13;;;;;;;7.63;1.43;;;3.10;99.90;;;;;;5021446;28;20038;-83
2022/01/06 06:31:39;;;;;;;3.37;1.90;;;3.10;99.90;;;;;;5022987;28;20088;-82
2022/01/06 06:34:04;;;;;;;1.80;1.37;;;3.10;99.90;;;;;;5021490;28;20045;-83
2022/01/06 06:36:30;;;;;;;4.03;1.23;;;3.10;99.90;;;;;;5004245;28;20037;-83
2022/01/06 06:38:55;;;;;;;4.83;0.73;;;3.10;99.90;;;;;;5021426;28;20436;-82
2022/01/06 06:41:21;;;;;;;1.00;0.67;;;3.00;99.90;;;;;;5019905;28;20053;-83
2022/01/06 06:43:47;;;;;;;0.60;0.60;;;3.00;99.90;;;;;;5020851;28;20046;-83
2022/01/06 06:46:12;;;;;;;9.13;1.80;;;3.00;99.90;;;;;;5021613;28;20045;-83
2022/01/06 06:48:38;;;;;;;2.47;1.10;;;3.00;99.90;;;;;;5020338;28;20041;-83
2022/01/06 06:51:03;;;;;;;0.23;0.23;;;3.00;99.90;;;;;;5022385;28;20041;-83
2022/01/06 06:53:29;;;;;;;1.10;1.07;;;3.00;99.90;;;;;;5020483;28;20045;-83
2022/01/06 06:55:55;;;;;;;4.73;3.27;;;2.90;99.90;;;;;;5021378;28;20065;-83
2022/01/06 06:58:20;;;;;;;10.17;2.07;;;2.90;99.90;;;;;;5020608;28;20104;-83
2022/01/06 07:00:46;;;;;;;8.87;1.93;;;2.90;99.90;;;;;;5022617;28;20479;-83
2022/01/06 07:03:12;;;;;;;2.03;0.87;;;2.90;99.90;;;;;;5020919;28;20309;-83
2022/01/06 07:05:37;;;;;;;1.83;1.10;;;2.90;99.90;;;;;;5021957;28;20060;-82
2022/01/06 07:08:03;;;;;;;1.27;1.20;;;2.80;99.90;;;;;;5020187;28;20052;-82
2022/01/06 07:10:28;;;;;;;0.43;0.43;;;2.80;99.90;;;;;;5020253;28;20052;-82
2022/01/06 07:12:54;;;;;;;2.47;1.80;;;2.80;99.90;;;;;;5021915;28;20787;-82
2022/01/06 07:15:20;;;;;;;2.60;2.07;;;2.80;99.90;;;;;;5020425;28;20480;-83
2022/01/06 07:17:46;;;;;;;3.90;1.30;;;2.90;99.90;;;;;;5021179;28;20072;-82
2022/01/06 07:20:12;;;;;;;1.50;1.40;;;2.80;99.90;;;;;;5018563;28;20472;-82
2022/01/06 07:22:38;;;;;;;2.13;0.80;;;2.90;99.90;;;;;;5018587;28;20424;-82
2022/01/06 07:25:05;;;;;;;8.73;2.87;;;2.90;99.90;;;;;;5020149;28;20479;-82
2022/01/06 07:27:30;;;;;;;5.23;0.87;;;2.90;99.90;;;;;;5002728;28;20488;-82
2022/01/06 07:29:56;;;;;;;3.33;1.10;;;3.00;99.90;;;;;;5018350;28;20060;-82
2022/01/06 07:32:24;;;;;;;7.73;1.80;;;3.00;99.90;;;;;;5018741;28;20144;-82
2022/01/06 07:34:50;;;;;;;3.93;1.43;;;3.00;99.90;;;;;;5019797;28;20037;-82
2022/01/06 07:37:15;;;;;;;1.47;1.27;;;3.00;99.90;;;;;;5019316;28;20056;-82
2022/01/06 07:39:41;;;;;;;4.77;1.50;;;3.00;99.90;;;;;;5002122;28;20480;-82
2022/01/06 07:42:07;;;;;;;2.57;1.30;;;3.00;99.90;;;;;;5017266;28;20049;-83
2022/01/06 07:44:32;;;;;;;5.30;1.27;;;3.00;99.90;;;;;;5018949;28;20292;-82
2022/01/06 07:46:59;;;;;;;2.73;2.37;;;3.00;99.90;;;;;;5020473;28;20045;-82
2022/01/06 07:49:25;;;;;;;2.40;1.27;;;3.00;99.90;;;;;;5019033;28;20045;-82
2022/01/06 07:51:50;;;;;;;0.53;0.53;;;3.00;99.90;;;;;;5018362;28;20590;-82
2022/01/06 07:54:16;;;;;;;1.43;1.23;;;2.90;99.90;;;;;;5020481;28;20080;-82
2022/01/06 07:56:42;;;;;;;19.17;2.33;;;2.90;99.90;;;;;;5018012;28;20048;-82
2022/01/06 07:59:11;;;;;;;1.53;0.80;;;2.90;99.90;;;;;;5018624;28;20380;-82
2022/01/06 08:01:37;;;;;;;5.07;1.87;;;2.90;99.90;;;;;;5017958;28;20129;-82
2022/01/06 08:04:03;;;;;;;18.10;1.37;;;2.90;99.90;;;;;;5018407;28;20136;-82
2022/01/06 08:06:28;;;;;;;3.53;1.43;;;2.90;99.90;;;;;;5001578;28;20072;-82
2022/01/06 08:08:54;;;;;;;2.10;1.50;;;2.90;99.90;;;;;;5018768;28;20037;-82
2022/01/06 08:11:19;;;;;;;6.27;2.23;;;2.90;99.90;;;;;;5017787;28;20091;-82
2022/01/06 08:13:45;;;;;;;2.00;1.40;;;2.80;99.90;;;;;;5018847;28;20054;-82
2022/01/06 08:16:10;;;;;;;2.17;1.87;;;2.80;99.90;;;;;;5019617;28;20049;-82
2022/01/06 08:18:36;;;;;;;1.63;1.17;;;2.80;99.90;;;;;;5019086;28;20232;-82
2022/01/06 08:21:02;;;;;;;4.53;1.63;;;2.80;99.90;;;;;;5023563;28;20120;-84
2022/01/06 08:23:28;;;;;;;3.80;1.00;;;2.80;99.90;;;;;;5024392;28;20514;-82
2022/01/06 08:25:53;;;;;;;1.90;1.80;;;2.80;99.90;;;;;;5021783;28;20069;-81
2022/01/06 08:28:19;;;;;;;7.43;2.07;;;2.80;99.90;;;;;;5024078;28;20033;-82
2022/01/06 08:30:44;;;;;;;2.10;0.83;;;2.80;99.90;;;;;;5015575;28;20099;-82
2022/01/06 08:33:10;;;;;;;6.60;2.30;;;2.80;99.90;;;;;;5021215;28;20061;-82
2022/01/06 08:35:36;;;;;;;2.83;0.97;;;2.80;99.90;;;;;;5016446;28;21178;-79
2022/01/06 08:38:01;;;;;;;2.50;1.87;;;2.80;99.90;;;;;;5007364;28;20504;-80
2022/01/06 08:40:27;;;;;;;12.67;1.50;;;2.90;99.90;;;;;;5003528;28;20065;-79
2022/01/06 08:42:53;;;;;;;9.27;2.30;;;2.80;99.90;;;;;;5005665;28;20041;-82
2022/01/06 08:45:19;;;;;;;0.20;0.20;;;2.80;99.90;;;;;;5004276;28;20400;-80
2022/01/06 08:47:46;;;;;;;1.40;1.30;;;2.80;99.90;;;;;;5022798;28;20041;-80
2022/01/06 08:50:12;;;;;;;5.93;2.70;;;2.80;99.90;;;;;;5009842;28;20619;-80
2022/01/06 08:52:39;;;;;;;6.53;1.57;;;2.80;99.90;;;;;;5023793;28;20049;-86
2022/01/06 08:55:07;;;;;;;8.10;1.17;;;2.80;99.90;;;;;;5023412;28;20048;-86
2022/01/06 08:57:33;;;;;;;4.83;3.77;;;2.80;99.90;;;;;;5005301;28;20049;-83
2022/01/06 09:00:00;;;;;;;2.90;2.60;;;2.80;99.90;;;;;;5022716;28;20033;-82
2022/01/06 09:02:27;;;;;;;2.43;1.63;;;2.80;99.90;;;;;;5024531;28;20103;-82
2022/01/06 09:04:53;;;;;;;5.50;2.37;;;2.80;99.90;;;;;;5039305;28;20507;-80
2022/01/06 09:07:18;;;;;;;2.30;1.97;;;2.80;99.90;;;;;;5023321;28;20120;-80
2022/01/06 09:09:44;;;;;;;12.33;7.70;;;2.80;99.90;;;;;;5011129;28;20062;-83
2022/01/06 09:12:17;;;;;;;12.87;3.60;;;2.80;99.90;;;;;;5013090;28;20049;-87
2022/01/06 09:14:43;;;;;;;4.13;3.20;;;2.80;99.90;;;;;;5024237;28;20526;-80
2022/01/06 09:17:09;;;;;;;20.70;6.53;;;2.80;99.90;;;;;;5012398;28;20034;-78
2022/01/06 09:19:35;;;;;;;6.20;4.97;;;2.80;99.90;;;;;;5002263;28;20057;-80
2022/01/06 09:22:00;;;;;;;14.67;4.20;;;2.80;99.90;;;;;;5015579;28;20041;-79
2022/01/06 09:24:26;;;;;;;1.70;1.47;;;2.80;99.90;;;;;;5008551;28;20056;-79
2022/01/06 09:26:52;;;;;;;7.17;2.60;;;2.90;99.90;;;;;;5002161;28;20045;-79
2022/01/06 09:29:17;;;;;;;5.50;2.83;;;2.90;99.90;;;;;;5007318;28;20123;-81
2022/01/06 09:31:43;;;;;;;3.63;2.83;;;2.90;99.90;;;;;;5022111;28;20092;-78
2022/01/06 09:34:09;;;;;;;2.90;1.77;;;2.90;99.90;;;;;;5037384;28;20124;-80
2022/01/06 09:36:38;;;;;;;4.10;2.30;;;2.90;99.90;;;;;;5022359;28;20037;-79
2022/01/06 09:39:06;;;;;;;3.43;1.50;;;2.90;99.90;;;;;;5022697;28;20191;-80
2022/01/06 09:41:31;;;;;;;7.17;1.90;;;2.90;99.90;;;;;;5022256;28;20049;-80
2022/01/06 09:44:00;;;;;;;26.30;2.97;;;3.00;99.90;;;;;;5022592;28;20472;-80
2022/01/06 09:46:26;;;;;;;11.23;2.77;;;3.00;99.90;;;;;;5020585;28;20053;-80
2022/01/06 09:48:57;;;;;;;2.13;1.40;;;3.00;99.90;;;;;;5023326;28;20046;-79
2022/01/06 09:51:23;;;;;;;12.80;2.70;;;3.00;99.90;;;;;;5011459;28;20587;-83
2022/01/06 09:53:59;;;;;;;16.27;2.13;;;3.10;99.90;;;;;;5006211;28;20103;-80
2022/01/06 09:56:27;;;;;;;0.70;0.70;;;3.10;99.90;;;;;;4996402;28;20045;-84
2022/01/06 09:58:54;;;;;;;5.90;0.83;;;3.20;99.90;;;;;;5021787;28;20041;-83
2022/01/06 10:01:20;;;;;;;5.73;1.50;;;3.20;99.90;;;;;;5021222;28;20056;-82
2022/01/06 10:03:48;;;;;;;0.97;0.97;;;3.20;99.90;;;;;;5022094;28;20041;-84
2022/01/06 10:06:23;;;;;;;1.07;0.93;;;3.20;99.90;;;;;;5012822;28;20306;-81
2022/01/06 10:09:01;;;;;;;4.83;1.53;;;3.30;99.90;;;;;;4984984;28;20094;-78
2022/01/06 10:11:32;;;;;;;5.50;1.60;;;3.30;99.90;;;;;;4984084;28;20064;-78
2022/01/06 10:14:10;;;;;;;0.80;0.80;;;3.30;99.90;;;;;;4983693;28;20137;-78
2022/01/06 10:16:40;;;;;;;1.43;1.33;;;3.40;99.90;;;;;;4983882;28;20053;-78
2022/01/06 10:19:11;;;;;;;4.80;1.73;;;3.40;99.90;;;;;;4990647;28;20405;-80
2022/01/06 10:21:43;;;;;;;3.65;1.35;;;3.40;99.90;;;;;;4986539;28;20046;-85
2022/01/06 10:24:12;;;;;;;8.55;1.38;;;3.50;99.90;;;;;;5004927;28;20338;-81
2022/01/06 10:26:50;;;;;;;7.23;2.13;;;3.50;99.90;;;;;;5019868;28;20085;-80
2022/01/06 10:29:17;;;;;;;2.80;1.80;;;3.50;99.90;;;;;;5014697;28;20348;-78
2022/01/06 10:31:43;;;;;;;16.03;2.57;;;3.60;99.90;;;;;;5021195;28;20049;-77
2022/01/06 10:34:09;;;;;;;1.40;0.93;;;3.60;99.90;;;;;;5021287;28;20044;-78
2022/01/06 10:36:36;;;;;;;8.40;2.50;;;3.60;99.90;;;;;;5017467;28;20041;-78
2022/01/06 10:39:06;;;;;;;0.97;0.87;;;3.60;99.90;;;;;;5003746;28;20046;-78
2022/01/06 10:41:32;;;;;;;1.17;1.07;;;3.60;99.90;;;;;;5020175;28;20542;-78
2022/01/06 10:44:00;;;;;;;3.43;1.77;;;3.70;99.90;;;;;;5020944;28;20484;-78
2022/01/06 10:46:41;;;;;;;4.67;1.50;;;3.70;99.90;;;;;;5021558;28;20037;-78
2022/01/06 10:49:15;;;;;;;3.03;1.73;;;3.70;99.90;;;;;;5021547;28;20678;-78
2022/01/06 10:51:46;;;;;;;1.90;1.80;;;3.70;99.90;;;;;;5020596;28;20038;-78
2022/01/06 10:54:21;;;;;;;3.30;1.23;;;3.80;99.90;;;;;;5009483;28;20033;-84
2022/01/06 10:57:03;;;;;;;0.73;0.73;;;3.80;99.90;;;;;;5016693;28;20117;-84
2022/01/06 10:59:33;;;;;;;1.67;0.90;;;3.80;99.90;;;;;;5003474;28;20504;-82
2022/01/06 11:02:03;;;;;;;4.10;2.33;;;3.80;99.90;;;;;;5021983;28;20045;-84
2022/01/06 11:04:29;;;;;;;0.83;0.60;;;3.90;99.90;;;;;;5019155;28;20401;-83
2022/01/06 11:06:55;;;;;;;5.87;1.00;;;3.90;99.90;;;;;;5019696;28;20137;-80
2022/01/06 11:09:21;;;;;;;17.67;1.73;;;3.90;99.90;;;;;;5020865;28;20498;-81
2022/01/06 11:14:28;;;;;;;1.50;1.40;;;4.00;99.90;;;;;;5016294;28;20383;-82
2022/01/06 11:16:54;;;;;;;17.73;1.57;;;4.00;99.90;;;;;;5015793;28;20041;-83
2022/01/06 11:19:23;;;;;;;6.03;1.77;;;4.10;99.90;;;;;;5005739;28;20123;-83
2022/01/06 11:21:49;;;;;;;1.40;1.30;;;4.10;99.90;;;;;;5011280;28;20504;-81
2022/01/06 11:24:15;;;;;;;0.53;0.53;;;4.20;99.90;;;;;;5008716;28;20041;-81
2022/01/06 11:26:43;;;;;;;2.80;1.33;;;4.20;99.90;;;;;;5009380;28;20520;-80
2022/01/06 11:29:12;;;;;;;3.37;0.87;;;4.20;99.90;;;;;;5011717;28;20045;-81
2022/01/06 11:31:42;;;;;;;9.03;1.13;;;4.30;99.90;;;;;;5010988;28;20049;-80
2022/01/06 11:34:17;;;;;;;14.60;2.03;;;4.30;99.90;;;;;;5010857;28;20046;-81
2022/01/06 11:36:44;;;;;;;1.80;0.97;;;4.30;99.90;;;;;;5013110;28;20081;-78
2022/01/06 11:39:24;;;;;;;1.87;0.73;;;4.30;99.90;;;;;;5008351;28;20042;-78
2022/01/06 11:41:52;;;;;;;8.93;1.50;;;4.30;99.90;;;;;;5008854;28;20338;-78
2022/01/06 11:44:19;;;;;;;1.60;1.17;;;4.30;99.90;;;;;;5011145;28;20052;-78
2022/01/06 11:46:46;;;;;;;2.17;1.57;;;4.30;99.90;;;;;;5015289;28;20068;-78
2022/01/06 11:49:12;;;;;;;0.20;0.20;;;4.30;99.90;;;;;;5008093;28;20045;-81
2022/01/06 11:51:38;;;;;;;6.50;1.47;;;4.40;99.90;;;;;;5009029;28;20113;-80
2022/01/06 11:54:16;;;;;;;0.88;0.88;;;4.40;99.90;;;;;;5008942;28;20496;-80
2022/01/06 11:56:52;;;;;;;6.30;1.75;;;4.40;99.90;;;;;;4991021;28;20096;-79
2022/01/06 11:59:34;;;;;;;9.80;2.13;;;4.40;99.90;;;;;;5013010;28;20041;-79
2022/01/06 12:02:00;;;;;;;0.80;0.80;;;4.40;99.90;;;;;;5008847;28;20060;-79
2022/01/06 12:04:26;;;;;;;0.43;0.43;;;4.40;99.90;;;;;;5014497;28;20395;-79
2022/01/06 12:07:04;;;;;;;0.33;0.33;;;4.40;99.90;;;;;;5020249;28;20042;-79
2022/01/06 12:09:29;;;;;;;1.40;0.82;;;4.40;99.90;;;;;;5019317;28;20099;-78
2022/01/06 12:12:00;;;;;;;2.47;0.87;;;4.40;99.90;;;;;;5019531;28;20458;-78
2022/01/06 12:14:27;;;;;;;0.55;0.55;;;4.50;99.90;;;;;;5006497;28;20050;-78
2022/01/06 12:17:00;;;;;;;1.55;0.95;;;4.50;99.90;;;;;;5008783;28;20040;-78
2022/01/06 12:19:26;;;;;;;0.37;0.37;;;4.50;99.90;;;;;;5016882;28;20096;-79
2022/01/06 12:21:58;;;;;;;0.90;0.87;;;4.50;99.90;;;;;;5009373;28;20492;-78
2022/01/06 12:24:23;;;;;;;17.30;2.13;;;4.50;99.90;;;;;;5003808;28;20034;-78
2022/01/06 12:26:49;;;;;;;3.50;0.63;;;4.50;99.90;;;;;;5012343;28;20280;-79
2022/01/06 12:29:21;;;;;;;9.68;0.95;;;4.60;99.90;;;;;;5017017;28;20574;-78
2022/01/06 12:31:49;;;;;;;13.27;2.42;;;4.60;99.90;;;;;;5007395;28;20171;-78
2022/01/06 12:34:15;;;;;;;2.27;0.83;;;4.60;99.90;;;;;;5020466;28;20448;-78
2022/01/06 12:36:43;;;;;;;0.93;0.57;;;4.60;99.90;;;;;;5020212;28;20060;-77
2022/01/06 12:39:12;;;;;;;1.33;1.23;;;4.60;99.90;;;;;;5011101;28;20041;-78
2022/01/06 12:41:39;;;;;;;1.03;0.57;;;4.70;99.90;;;;;;4981398;28;20050;-78
2022/01/06 12:44:06;;;;;;;0.47;0.47;;;4.70;99.90;;;;;;5002707;28;20034;-78
2022/01/06 12:46:41;;;;;;;1.30;1.20;;;4.70;99.90;;;;;;5010693;28;20048;-77
2022/01/06 12:49:08;;;;;;;2.20;1.08;;;4.70;99.90;;;;;;5009632;28;20088;-82
2022/01/06 12:51:39;;;;;;;1.40;0.47;;;4.70;99.90;;;;;;5007556;28;20037;-82
2022/01/06 12:54:10;;;;;;;9.37;0.90;;;4.70;99.90;;;;;;5035771;28;20068;-78
2022/01/06 12:56:39;;;;;;;10.75;1.35;;;4.70;99.90;;;;;;5020011;28;20877;-78
2022/01/06 12:59:11;;;;;;;0.98;0.73;;;4.80;99.90;;;;;;5019679;28;20029;-79
2022/01/06 13:01:37;;;;;;;;;;;4.80;99.90;;;;;;5018792;28;20053;-80
2022/01/06 13:04:05;;;;;;;2.75;1.48;;;4.80;99.90;;;;;;5017333;28;19924;-80
2022/01/06 13:06:33;;;;;;;0.73;0.73;;;4.80;99.90;;;;;;5016374;28;20375;-79
2022/01/06 13:09:01;;;;;;;0.47;0.47;;;4.80;99.90;;;;;;5013459;28;20515;-80